createdAt,value
2018-05-14T04:05:41.657Z,12.5
2018-05-14T04:06:02.570Z,12.4
2018-05-14T04:06:23.588Z,12.5
2018-05-14T04:06:44.345Z,12.5
2018-05-14T04:07:05.366Z,12.5
2018-05-14T04:07:26.396Z,12.5
2018-05-14T04:07:47.400Z,12.5
2018-05-14T04:08:08.330Z,12.4
2018-05-14T04:08:29.402Z,12.4
2018-05-14T04:08:50.177Z,12.4
2018-05-14T04:29:49.767Z,12.6
2018-05-14T04:30:14.082Z,12.6
2018-05-14T04:30:36.742Z,12.6
2018-05-14T04:36:32.098Z,12.6
2018-05-14T04:36:53.407Z,12.7
2018-05-14T04:39:44.386Z,12.8
2018-05-14T04:40:06.042Z,12.7
2018-05-14T04:40:27.035Z,12.8
2018-05-14T04:40:47.934Z,12.9
2018-05-14T04:49:18.414Z,13
2018-05-14T05:00:49.336Z,13.1
2018-05-14T05:02:41.406Z,13.2
2018-05-14T05:04:23.712Z,13.2
2018-05-14T05:08:13.378Z,13.4
2018-05-14T05:08:33.750Z,13.4
2018-05-14T05:10:49.730Z,13.4
2018-05-14T05:11:11.144Z,13.4
2018-05-14T05:15:58.533Z,13.4
2018-05-14T05:16:22.533Z,13.5
2018-05-14T05:16:44.068Z,13.5
2018-05-14T05:22:14.379Z,13.8
2018-05-14T05:22:46.436Z,13.8
2018-05-14T05:25:46.700Z,13.8
2018-05-14T05:26:08.073Z,13.9
2018-05-14T05:26:28.782Z,13.9
2018-05-14T05:27:20.268Z,13.8
2018-05-14T05:27:41.879Z,13.9
2018-05-14T05:28:02.644Z,13.9
2018-05-14T05:28:23.517Z,14
2018-05-14T05:28:44.663Z,13.9
2018-05-14T05:31:38.401Z,14
2018-05-14T05:32:14.136Z,14
2018-05-14T05:32:38.075Z,14
2018-05-14T05:34:19.840Z,14.1
2018-05-14T05:35:29.963Z,14.1
2018-05-14T05:36:43.759Z,14.1
2018-05-14T05:37:16.933Z,14.2
2018-05-14T05:38:01.148Z,14.2
2018-05-14T05:38:27.089Z,14.3
2018-05-14T05:38:49.394Z,14.3
2018-05-14T05:39:12.140Z,14.3
2018-05-14T05:39:33.909Z,14.2
2018-05-14T05:39:55.839Z,14.2
2018-05-14T05:40:17.692Z,14.3
2018-05-14T05:40:39.615Z,14.3
2018-05-14T05:41:01.089Z,14.3
2018-05-14T05:41:23.605Z,14.3
2018-05-14T05:41:45.355Z,14.3
2018-05-14T05:42:06.614Z,14.3
2018-05-14T05:42:28.942Z,14.3
2018-05-14T05:42:50.770Z,14.3
2018-05-14T05:43:13.010Z,14.4
2018-05-14T05:43:34.542Z,14.4
2018-05-14T05:43:55.969Z,14.4
2018-05-14T05:44:17.717Z,14.4
2018-05-14T05:44:39.594Z,14.4
2018-05-14T05:45:01.329Z,14.5
2018-05-14T05:45:22.950Z,14.4
2018-05-14T05:45:45.271Z,14.5
2018-05-14T05:46:07.917Z,14.6
2018-05-14T05:46:28.795Z,14.5
2018-05-14T05:46:49.447Z,14.5
2018-05-14T05:47:10.701Z,14.6
2018-05-14T05:47:31.744Z,14.6
2018-05-14T05:47:52.467Z,14.6
2018-05-14T05:48:14.060Z,14.6
2018-05-14T05:48:36.011Z,14.6
2018-05-14T05:48:57.123Z,14.7
2018-05-14T05:49:19.213Z,14.7
2018-05-14T05:49:40.805Z,14.7
2018-05-14T05:50:02.382Z,14.7
2018-05-14T05:50:24.551Z,14.8
2018-05-14T05:50:46.897Z,14.7
2018-05-14T05:51:07.876Z,14.7
2018-05-14T05:51:30.123Z,14.7
2018-05-14T05:51:50.907Z,14.7
2018-05-14T05:52:12.953Z,14.8
2018-05-14T05:52:34.478Z,14.8
2018-05-14T05:52:55.425Z,14.7
2018-05-14T05:53:17.763Z,14.8
2018-05-14T05:53:38.705Z,14.8
2018-05-14T05:54:00.050Z,14.9
2018-05-14T05:54:22.985Z,14.9
2018-05-14T05:54:44.696Z,14.9
2018-05-14T05:55:06.586Z,14.8
2018-05-14T05:55:28.339Z,14.9
2018-05-14T05:55:49.548Z,14.9
2018-05-14T05:56:10.344Z,14.9
2018-05-14T05:56:31.179Z,15
2018-05-14T05:56:52.069Z,14.9
2018-05-14T05:57:12.753Z,15
2018-05-14T05:57:33.563Z,15
2018-05-14T05:57:54.556Z,15.1
2018-05-14T05:58:15.627Z,15.1
2018-05-14T05:58:36.512Z,15.1
2018-05-14T05:58:58.191Z,15.1
2018-05-14T05:59:19.502Z,15.2
2018-05-14T05:59:40.994Z,15.1
2018-05-14T06:00:02.009Z,15.1
2018-05-14T06:00:22.785Z,15.2
2018-05-14T06:00:43.949Z,15.1
2018-05-14T06:01:04.864Z,15.2
2018-05-14T06:01:26.690Z,15.2
2018-05-14T06:01:47.707Z,15.2
2018-05-14T06:02:09.375Z,15.1
2018-05-14T06:02:30.514Z,15.2
2018-05-14T06:02:52.180Z,15.2
2018-05-14T06:03:13.754Z,15.1
2018-05-14T06:03:35.089Z,15.3
2018-05-14T06:03:56.003Z,15.3
2018-05-14T06:04:16.933Z,15.3
2018-05-14T06:04:37.911Z,15.2
2018-05-14T06:04:58.631Z,15.3
2018-05-14T06:05:19.361Z,15.2
2018-05-14T06:05:40.049Z,15.3
2018-05-14T06:06:00.672Z,15.3
2018-05-14T06:06:21.445Z,15.3
2018-05-14T06:06:41.926Z,15.3
2018-05-14T06:07:02.931Z,15.3
2018-05-14T06:07:23.722Z,15.3
2018-05-14T06:07:44.548Z,15.3
2018-05-14T06:08:05.484Z,15.3
2018-05-14T06:08:26.280Z,15.4
2018-05-14T06:08:48.263Z,15.3
2018-05-14T06:09:09.668Z,15.4
2018-05-14T06:09:31.250Z,15.4
2018-05-14T06:09:52.967Z,15.4
2018-05-14T06:10:15.034Z,15.4
2018-05-14T06:10:35.665Z,15.5
2018-05-14T06:10:56.477Z,15.5
2018-05-14T06:11:17.297Z,15.5
2018-05-14T06:11:38.355Z,15.7
2018-05-14T06:11:59.136Z,15.6
2018-05-14T06:12:19.615Z,15.6
2018-05-14T06:12:40.642Z,15.6
2018-05-14T06:13:02.265Z,15.7
2018-05-14T06:13:24.073Z,15.7
2018-05-14T06:13:46.093Z,15.6
2018-05-14T06:14:07.515Z,15.7
2018-05-14T06:14:28.372Z,15.7
2018-05-14T06:14:49.875Z,15.7
2018-05-14T06:15:10.843Z,15.8
2018-05-14T06:15:32.054Z,15.8
2018-05-14T06:15:53.087Z,15.8
2018-05-14T06:16:13.932Z,15.8
2018-05-14T06:16:34.955Z,15.9
2018-05-14T06:16:55.979Z,15.9
2018-05-14T06:17:17.467Z,15.9
2018-05-14T06:17:38.604Z,15.9
2018-05-14T06:18:00.097Z,15.9
2018-05-14T06:18:21.338Z,15.9
2018-05-14T06:18:42.425Z,15.9
2018-05-14T06:19:03.264Z,16
2018-05-14T06:19:24.602Z,16
2018-05-14T06:19:45.641Z,16
2018-05-14T06:20:07.193Z,16
2018-05-14T06:20:28.171Z,16
2018-05-14T06:20:49.151Z,16
2018-05-14T06:21:09.983Z,16
2018-05-14T06:21:32.288Z,16
2018-05-14T06:21:53.031Z,16.1
2018-05-14T06:22:14.652Z,16.1
2018-05-14T06:22:35.328Z,16.2
2018-05-14T06:22:56.707Z,16.2
2018-05-14T06:23:17.184Z,16.2
2018-05-14T06:23:37.752Z,16.1
2018-05-14T06:23:59.720Z,16.3
2018-05-14T06:24:20.276Z,16.2
2018-05-14T06:24:41.120Z,16.3
2018-05-14T06:25:01.980Z,16.3
2018-05-14T06:25:22.649Z,16.3
2018-05-14T06:25:43.411Z,16.3
2018-05-14T06:26:04.194Z,16.4
2018-05-14T06:26:24.908Z,16.4
2018-05-14T06:26:46.292Z,16.4
2018-05-14T06:27:07.064Z,16.4
2018-05-14T06:27:28.744Z,16.5
2018-05-14T06:27:51.615Z,16.5
2018-05-14T06:28:12.397Z,16.5
2018-05-14T06:28:33.119Z,16.5
2018-05-14T06:28:54.038Z,16.6
2018-05-14T06:29:14.878Z,16.7
2018-05-14T06:29:36.414Z,16.7
2018-05-14T06:29:57.691Z,16.7
2018-05-14T06:30:18.174Z,16.7
2018-05-14T06:30:39.178Z,16.8
2018-05-14T06:31:00.504Z,16.7
2018-05-14T06:31:21.099Z,16.7
2018-05-14T06:31:41.667Z,16.7
2018-05-14T06:32:02.234Z,16.7
2018-05-14T06:32:22.784Z,16.7
2018-05-14T06:32:43.408Z,16.8
2018-05-14T06:33:03.856Z,16.8
2018-05-14T06:33:27.746Z,16.8
2018-05-14T06:33:48.765Z,16.8
2018-05-14T06:34:09.563Z,16.8
2018-05-14T06:34:30.526Z,16.9
2018-05-14T06:34:51.016Z,16.8
2018-05-14T06:35:11.919Z,16.8
2018-05-14T06:35:32.374Z,16.9
2018-05-14T06:35:52.991Z,16.9
2018-05-14T06:36:14.245Z,16.9
2018-05-14T06:36:34.967Z,16.9
2018-05-14T06:36:55.353Z,16.9
2018-05-14T06:37:15.812Z,16.9
2018-05-14T06:37:38.194Z,16.8
2018-05-14T06:37:58.771Z,16.9
2018-05-14T06:38:19.123Z,16.8
2018-05-14T06:38:39.744Z,16.9
2018-05-14T06:39:00.458Z,17
2018-05-14T06:39:21.032Z,17
2018-05-14T06:39:41.598Z,17
2018-05-14T06:40:03.636Z,17
2018-05-14T06:40:24.468Z,17
2018-05-14T06:40:45.766Z,17
2018-05-14T06:41:06.468Z,17
2018-05-14T06:41:27.051Z,16.9
2018-05-14T06:41:48.080Z,17
2018-05-14T06:42:09.164Z,17
2018-05-14T06:42:29.927Z,17
2018-05-14T06:42:50.997Z,17.1
2018-05-14T06:43:12.078Z,17
2018-05-14T06:43:32.913Z,17.1
2018-05-14T06:43:54.878Z,17
2018-05-14T06:44:16.783Z,17
2018-05-14T06:44:38.243Z,17.1
2018-05-14T06:44:59.511Z,17.2
2018-05-14T06:45:20.240Z,17.1
2018-05-14T06:45:41.555Z,17.2
2018-05-14T06:46:02.494Z,17.3
2018-05-14T06:46:23.915Z,17.2
2018-05-14T06:46:45.198Z,17.3
2018-05-14T06:47:06.497Z,17.3
2018-05-14T06:47:27.279Z,17.4
2018-05-14T06:47:48.273Z,17.4
2018-05-14T06:48:09.154Z,17.5
2018-05-14T06:48:29.986Z,17.6
2018-05-14T06:48:50.896Z,17.5
2018-05-14T06:49:11.839Z,17.6
2018-05-14T06:49:32.889Z,17.6
2018-05-14T06:49:54.132Z,17.6
2018-05-14T06:50:16.633Z,17.7
2018-05-14T06:50:38.595Z,17.7
2018-05-14T06:51:00.307Z,17.7
2018-05-14T06:51:21.861Z,17.7
2018-05-14T06:51:42.569Z,17.8
2018-05-14T06:52:03.446Z,17.8
2018-05-14T06:52:24.255Z,17.7
2018-05-14T06:52:44.699Z,17.9
2018-05-14T06:53:05.288Z,17.8
2018-05-14T06:53:26.019Z,17.9
2018-05-14T06:53:48.739Z,17.8
2018-05-14T06:54:09.759Z,17.9
2018-05-14T06:54:30.794Z,17.8
2018-05-14T06:54:51.804Z,17.9
2018-05-14T06:55:12.823Z,17.9
2018-05-14T06:55:33.714Z,17.9
2018-05-14T06:55:54.531Z,17.9
2018-05-14T06:56:15.400Z,18
2018-05-14T06:56:36.262Z,18
2018-05-14T06:56:57.033Z,17.9
2018-05-14T06:57:18.024Z,18
2018-05-14T06:57:39.020Z,18
2018-05-14T06:57:59.956Z,18
2018-05-14T06:58:20.736Z,18
2018-05-14T06:58:42.630Z,18
2018-05-14T06:59:03.615Z,18
2018-05-14T06:59:24.640Z,18
2018-05-14T06:59:46.925Z,18
2018-05-14T07:00:07.917Z,18.1
2018-05-14T07:00:28.573Z,18
2018-05-14T07:00:49.606Z,18
2018-05-14T07:01:10.625Z,18.1
2018-05-14T07:01:31.728Z,18.2
2018-05-14T07:01:53.531Z,18.1
2018-05-14T07:02:14.347Z,18.3
2018-05-14T07:02:35.163Z,18.2
2018-05-14T07:02:56.821Z,18.2
2018-05-14T07:03:18.457Z,18.2
2018-05-14T07:03:39.674Z,18.2
2018-05-14T07:04:00.575Z,18.2
2018-05-14T07:04:21.581Z,18.3
2018-05-14T07:04:43.119Z,18.3
2018-05-14T07:05:05.477Z,18.4
2018-05-14T07:05:26.953Z,18.5
2018-05-14T07:05:47.938Z,18.5
2018-05-14T07:06:09.601Z,18.5
2018-05-14T07:06:32.435Z,18.6
2018-05-14T07:06:56.775Z,18.6
2018-05-14T07:07:21.240Z,18.6
2018-05-14T07:07:46.849Z,18.6
2018-05-14T07:08:10.447Z,18.7
2018-05-14T07:08:31.360Z,18.7
2018-05-14T07:08:52.296Z,18.7
2018-05-14T07:09:13.044Z,18.7
2018-05-14T07:09:33.909Z,18.8
2018-05-14T07:09:56.643Z,18.8
2018-05-14T07:10:17.432Z,18.8
2018-05-14T07:10:38.369Z,18.8
2018-05-14T07:10:59.445Z,18.8
2018-05-14T07:11:20.431Z,18.9
2018-05-14T07:11:41.293Z,18.9
2018-05-14T07:12:02.752Z,18.9
2018-05-14T07:12:23.356Z,18.9
2018-05-14T07:12:44.380Z,18.9
2018-05-14T07:13:05.738Z,19
2018-05-14T07:13:26.425Z,18.9
2018-05-14T07:13:47.376Z,18.9
2018-05-14T07:14:08.244Z,19
2018-05-14T07:14:29.491Z,19
2018-05-14T07:14:50.724Z,19
2018-05-14T07:15:11.850Z,19.1
2018-05-14T07:15:33.269Z,19.2
2018-05-14T07:15:54.779Z,19.1
2018-05-14T07:16:15.582Z,19.2
2018-05-14T07:16:36.656Z,19.2
2018-05-14T07:16:57.806Z,19.2
2018-05-14T07:17:18.630Z,19.2
2018-05-14T07:17:59.915Z,19.3
2018-05-14T07:18:40.356Z,19.3
2018-05-14T07:19:20.903Z,19.4
2018-05-14T07:19:42.012Z,19.4
2018-05-14T07:20:03.488Z,19.4
2018-05-14T07:20:25.704Z,19.5
2018-05-14T07:20:47.142Z,19.4
2018-05-14T07:21:08.185Z,19.5
2018-05-14T07:21:29.046Z,19.5
2018-05-14T07:21:50.003Z,19.5
2018-05-14T07:22:10.585Z,19.6
2018-05-14T07:22:32.269Z,19.7
2018-05-14T07:22:53.350Z,19.6
2018-05-14T07:23:14.269Z,19.6
2018-05-14T07:23:35.190Z,19.7
2018-05-14T07:23:56.008Z,19.8
2018-05-14T07:24:16.920Z,19.7
2018-05-14T07:24:37.833Z,19.7
2018-05-14T07:24:59.043Z,19.7
2018-05-14T07:25:19.966Z,19.8
2018-05-14T07:25:41.096Z,19.8
2018-05-14T07:26:01.784Z,19.8
2018-05-14T07:26:22.800Z,19.8
2018-05-14T07:26:43.435Z,20
2018-05-14T07:27:04.345Z,19.9
2018-05-14T07:27:25.550Z,20
2018-05-14T07:27:47.768Z,20
2018-05-14T07:28:08.717Z,19.9
2018-05-14T07:28:30.386Z,19.9
2018-05-14T07:28:51.022Z,20
2018-05-14T07:29:11.715Z,20
2018-05-14T07:29:32.488Z,20.2
2018-05-14T07:29:53.121Z,20.1
2018-05-14T07:30:14.198Z,20.1
2018-05-14T07:30:34.838Z,20.1
2018-05-14T07:30:55.692Z,20.1
2018-05-14T07:31:16.416Z,20.1
2018-05-14T07:31:37.356Z,20.1
2018-05-14T07:31:57.871Z,20.1
2018-05-14T07:32:18.372Z,20.2
2018-05-14T07:32:39.919Z,20.2
2018-05-14T07:33:00.646Z,20.3
2018-05-14T07:33:21.339Z,20.2
2018-05-14T07:33:42.373Z,20.3
2018-05-14T07:34:03.207Z,20.2
2018-05-14T07:34:24.224Z,20.2
2018-05-14T07:34:46.206Z,20.4
2018-05-14T07:35:07.207Z,20.4
2018-05-14T07:35:28.492Z,20.3
2018-05-14T07:35:50.256Z,20.3
2018-05-14T07:36:11.653Z,20.4
2018-05-14T07:36:32.690Z,20.3
2018-05-14T07:36:53.340Z,20.4
2018-05-14T07:37:14.049Z,20.4
2018-05-14T07:37:34.722Z,20.4
2018-05-14T07:37:55.255Z,20.4
2018-05-14T07:38:15.984Z,20.5
2018-05-14T07:38:36.420Z,20.4
2018-05-14T07:38:57.205Z,20.5
2018-05-14T07:39:17.555Z,20.5
2018-05-14T07:39:38.006Z,20.4
2018-05-14T07:39:58.915Z,20.4
2018-05-14T07:40:19.779Z,20.4
2018-05-14T07:40:40.787Z,20.4
2018-05-14T07:41:01.544Z,20.4
2018-05-14T07:41:22.119Z,20.5
2018-05-14T07:41:42.529Z,20.4
2018-05-14T07:42:03.902Z,20.4
2018-05-14T07:42:24.664Z,20.5
2018-05-14T07:42:45.146Z,20.5
2018-05-14T07:43:05.872Z,20.5
2018-05-14T07:43:26.579Z,20.5
2018-05-14T07:43:47.632Z,20.6
2018-05-14T07:44:08.054Z,20.5
2018-05-14T07:44:28.621Z,20.6
2018-05-14T07:44:49.591Z,20.7
2018-05-14T07:45:10.193Z,20.7
2018-05-14T07:45:30.821Z,20.7
2018-05-14T07:45:51.261Z,20.6
2018-05-14T07:46:11.747Z,20.7
2018-05-14T07:46:32.189Z,20.7
2018-05-14T07:46:53.104Z,20.7
2018-05-14T07:47:13.547Z,20.7
2018-05-14T07:47:34.105Z,20.6
2018-05-14T07:47:54.785Z,20.7
2018-05-14T07:48:15.264Z,20.8
2018-05-14T07:48:35.697Z,20.7
2018-05-14T07:48:56.275Z,20.6
2018-05-14T07:49:17.830Z,20.6
2018-05-14T07:49:38.462Z,20.7
2018-05-14T07:49:59.272Z,20.7
2018-05-14T07:50:19.683Z,20.7
2018-05-14T07:50:40.777Z,20.7
2018-05-14T07:51:01.768Z,20.7
2018-05-14T07:51:22.288Z,20.7
2018-05-14T07:51:42.778Z,20.8
2018-05-14T07:52:03.428Z,20.8
2018-05-14T07:52:23.981Z,20.7
2018-05-14T07:52:44.306Z,20.7
2018-05-14T07:53:04.382Z,20.7
2018-05-14T07:53:24.683Z,20.8
2018-05-14T07:53:44.941Z,20.9
2018-05-14T07:54:05.271Z,20.9
2018-05-14T07:54:25.661Z,20.8
2018-05-14T07:54:46.058Z,20.9
2018-05-14T07:55:06.439Z,20.8
2018-05-14T07:55:26.842Z,20.8
2018-05-14T07:55:47.341Z,20.9
2018-05-14T07:56:07.596Z,20.8
2018-05-14T07:56:28.085Z,20.8
2018-05-14T07:56:48.334Z,20.9
2018-05-14T07:57:09.364Z,20.9
2018-05-14T07:57:29.889Z,20.9
2018-05-14T07:57:50.316Z,20.8
2018-05-14T07:58:10.428Z,20.9
2018-05-14T07:58:31.284Z,20.9
2018-05-14T07:58:51.943Z,21
2018-05-14T07:59:12.588Z,20.9
2018-05-14T07:59:32.938Z,21
2018-05-14T07:59:53.529Z,21
2018-05-14T08:00:13.843Z,21
2018-05-14T08:00:34.165Z,21
2018-05-14T08:00:54.634Z,20.9
2018-05-14T08:01:15.147Z,20.9
2018-05-14T08:01:35.724Z,21
2018-05-14T08:01:56.311Z,21
2018-05-14T08:02:16.861Z,20.9
2018-05-14T08:02:37.418Z,21
2018-05-14T08:02:57.895Z,21.1
2018-05-14T08:03:18.475Z,21
2018-05-14T08:03:38.811Z,21
2018-05-14T08:03:59.656Z,21
2018-05-14T08:04:20.442Z,21
2018-05-14T08:04:40.749Z,21.1
2018-05-14T08:05:01.972Z,21
2018-05-14T08:05:22.451Z,21.1
2018-05-14T08:05:43.440Z,21
2018-05-14T08:06:04.019Z,21
2018-05-14T08:06:24.523Z,21
2018-05-14T08:06:45.296Z,20.9
2018-05-14T08:07:06.468Z,21
2018-05-14T08:07:27.211Z,21
2018-05-14T08:07:47.682Z,21.1
2018-05-14T08:08:08.303Z,21
2018-05-14T08:08:28.721Z,21
2018-05-14T08:08:49.360Z,21.1
2018-05-14T08:09:10.774Z,21.1
2018-05-14T08:09:31.480Z,21.2
2018-05-14T08:09:52.000Z,21.3
2018-05-14T08:10:12.802Z,21.2
2018-05-14T08:10:33.355Z,21.3
2018-05-14T08:10:53.595Z,21.4
2018-05-14T08:11:14.869Z,21.4
2018-05-14T08:11:35.322Z,21.4
2018-05-14T08:11:55.596Z,21.5
2018-05-14T08:12:15.917Z,21.5
2018-05-14T08:12:36.188Z,21.5
2018-05-14T08:12:56.617Z,21.5
2018-05-14T08:13:17.049Z,21.5
2018-05-14T08:13:37.406Z,21.5
2018-05-14T08:13:58.771Z,21.6
2018-05-14T08:14:19.382Z,21.5
2018-05-14T08:14:39.962Z,21.5
2018-05-14T08:15:00.438Z,21.5
2018-05-14T08:15:20.791Z,21.6
2018-05-14T08:15:41.351Z,21.6
2018-05-14T08:16:01.767Z,21.7
2018-05-14T08:16:22.051Z,21.7
2018-05-14T08:16:42.538Z,21.7
2018-05-14T08:17:03.096Z,21.6
2018-05-14T08:17:24.457Z,21.7
2018-05-14T08:17:45.016Z,21.7
2018-05-14T08:18:05.642Z,21.8
2018-05-14T08:18:26.742Z,21.8
2018-05-14T08:18:47.783Z,21.8
2018-05-14T08:19:09.033Z,21.8
2018-05-14T08:19:29.296Z,21.8
2018-05-14T08:19:50.017Z,21.8
2018-05-14T08:20:10.390Z,21.8
2018-05-14T08:20:30.839Z,21.8
2018-05-14T08:20:52.330Z,21.8
2018-05-14T08:21:12.722Z,22
2018-05-14T08:21:33.151Z,21.8
2018-05-14T08:21:53.783Z,21.8
2018-05-14T08:22:14.209Z,21.9
2018-05-14T08:22:34.629Z,21.9
2018-05-14T08:22:55.791Z,22
2018-05-14T08:23:16.337Z,22
2018-05-14T08:23:37.121Z,22
2018-05-14T08:23:57.662Z,22
2018-05-14T08:24:18.186Z,22
2018-05-14T08:24:38.654Z,22.1
2018-05-14T08:24:58.961Z,22.1
2018-05-14T08:25:19.512Z,22.1
2018-05-14T08:25:40.487Z,22
2018-05-14T08:26:00.938Z,22
2018-05-14T08:26:21.672Z,22
2018-05-14T08:26:42.865Z,22.1
2018-05-14T08:27:03.416Z,22
2018-05-14T08:27:24.143Z,22.1
2018-05-14T08:27:45.395Z,22
2018-05-14T08:28:05.991Z,22
2018-05-14T08:28:26.334Z,22.1
2018-05-14T08:28:46.701Z,22
2018-05-14T08:29:07.140Z,21.9
2018-05-14T08:29:27.513Z,22
2018-05-14T08:29:47.915Z,22.1
2018-05-14T08:30:08.818Z,22.1
2018-05-14T08:30:29.436Z,22
2018-05-14T08:30:50.193Z,22
2018-05-14T08:31:10.718Z,22
2018-05-14T08:31:31.490Z,22
2018-05-14T08:31:52.542Z,22
2018-05-14T08:32:13.222Z,22
2018-05-14T08:32:33.904Z,22
2018-05-14T08:32:55.287Z,22.1
2018-05-14T08:33:16.054Z,22.1
2018-05-14T08:33:36.352Z,22.1
2018-05-14T08:33:57.369Z,22.1
2018-05-14T08:34:17.768Z,22.2
2018-05-14T08:34:38.192Z,22.2
2018-05-14T08:34:58.553Z,22.2
2018-05-14T08:35:19.792Z,22.2
2018-05-14T08:35:41.138Z,22.3
2018-05-14T08:36:01.466Z,22.2
2018-05-14T08:36:22.039Z,22.2
2018-05-14T08:36:42.805Z,22.2
2018-05-14T08:37:03.442Z,22.2
2018-05-14T08:37:23.856Z,22.3
2018-05-14T08:37:44.085Z,22.2
2018-05-14T08:38:05.506Z,22.2
2018-05-14T08:38:26.486Z,22.2
2018-05-14T08:38:47.594Z,22.4
2018-05-14T08:39:08.059Z,22.4
2018-05-14T08:39:28.733Z,22.4
2018-05-14T08:39:49.053Z,22.5
2018-05-14T08:40:09.248Z,22.5
2018-05-14T08:40:30.192Z,22.6
2018-05-14T08:40:50.555Z,22.6
2018-05-14T08:41:11.430Z,22.6
2018-05-14T08:41:31.768Z,22.6
2018-05-14T08:41:52.091Z,22.6
2018-05-14T08:42:12.545Z,22.5
2018-05-14T08:42:33.137Z,22.6
2018-05-14T08:42:53.300Z,22.6
2018-05-14T08:43:13.758Z,22.7
2018-05-14T08:43:34.309Z,22.6
2018-05-14T08:43:54.660Z,22.6
2018-05-14T08:44:15.131Z,22.6
2018-05-14T08:44:35.626Z,22.6
2018-05-14T08:44:56.120Z,22.6
2018-05-14T08:45:17.119Z,22.5
2018-05-14T08:45:37.600Z,22.5
2018-05-14T08:45:58.747Z,22.5
2018-05-14T08:46:19.288Z,22.5
2018-05-14T08:46:40.822Z,22.5
2018-05-14T08:47:01.244Z,22.5
2018-05-14T08:47:22.583Z,22.5
2018-05-14T08:47:43.865Z,22.5
2018-05-14T08:48:04.702Z,22.5
2018-05-14T08:48:25.325Z,22.5
2018-05-14T08:48:46.807Z,22.6
2018-05-14T08:49:07.426Z,22.5
2018-05-14T08:49:28.117Z,22.6
2018-05-14T08:49:48.705Z,22.5
2018-05-14T08:50:09.115Z,22.7
2018-05-14T08:50:29.994Z,22.6
2018-05-14T08:50:50.368Z,22.7
2018-05-14T08:51:11.048Z,22.7
2018-05-14T08:51:31.795Z,22.6
2018-05-14T08:51:52.495Z,22.7
2018-05-14T08:52:13.186Z,22.7
2018-05-14T08:52:33.864Z,22.7
2018-05-14T08:53:14.280Z,22.8
2018-05-14T08:53:35.179Z,22.7
2018-05-14T08:53:55.939Z,22.7
2018-05-14T08:54:17.106Z,22.8
2018-05-14T08:54:37.570Z,22.8
2018-05-14T08:54:58.915Z,22.8
2018-05-14T08:55:19.526Z,22.7
2018-05-14T08:55:40.037Z,22.7
2018-05-14T08:56:02.320Z,22.7
2018-05-14T08:56:22.640Z,22.7
2018-05-14T08:56:43.050Z,22.7
2018-05-14T08:57:03.394Z,22.7
2018-05-14T08:57:23.862Z,22.7
2018-05-14T08:57:44.917Z,22.7
2018-05-14T08:58:05.388Z,22.7
2018-05-14T08:58:25.740Z,22.7
2018-05-14T08:58:46.180Z,22.7
2018-05-14T08:59:06.730Z,22.8
2018-05-14T08:59:26.782Z,22.8
2018-05-14T08:59:47.359Z,22.8
2018-05-14T09:00:08.126Z,22.8
2018-05-14T09:00:29.318Z,22.8
2018-05-14T09:00:50.034Z,22.8
2018-05-14T09:01:10.427Z,22.8
2018-05-14T09:01:30.861Z,22.7
2018-05-14T09:01:51.471Z,22.8
2018-05-14T09:02:11.850Z,22.8
2018-05-14T09:02:32.209Z,22.8
2018-05-14T09:02:52.661Z,22.8
2018-05-14T09:03:12.995Z,22.9
2018-05-14T09:03:33.286Z,22.8
2018-05-14T09:03:53.571Z,22.8
2018-05-14T09:04:14.782Z,22.8
2018-05-14T09:04:35.111Z,22.9
2018-05-14T09:04:55.594Z,22.9
2018-05-14T09:05:17.281Z,22.9
2018-05-14T09:05:37.996Z,22.9
2018-05-14T09:05:59.437Z,23
2018-05-14T09:06:19.865Z,22.9
2018-05-14T09:06:40.495Z,22.9
2018-05-14T09:07:01.039Z,22.9
2018-05-14T09:07:21.594Z,22.9
2018-05-14T09:07:42.336Z,23
2018-05-14T09:08:03.537Z,23
2018-05-14T09:08:23.869Z,23
2018-05-14T09:08:44.533Z,23
2018-05-14T09:09:05.217Z,23
2018-05-14T09:09:26.614Z,23.1
2018-05-14T09:09:46.912Z,23
2018-05-14T09:10:09.453Z,23.1
2018-05-14T09:10:29.800Z,23
2018-05-14T09:10:50.757Z,23.1
2018-05-14T09:11:11.260Z,23.2
2018-05-14T09:11:32.462Z,23.1
2018-05-14T09:11:53.320Z,23.1
2018-05-14T09:12:14.040Z,23.1
2018-05-14T09:12:37.292Z,23
2018-05-14T09:12:57.858Z,23.1
2018-05-14T09:13:18.469Z,23
2018-05-14T09:13:39.181Z,22.9
2018-05-14T09:13:59.947Z,23
2018-05-14T09:14:20.025Z,22.9
2018-05-14T09:14:40.531Z,23
2018-05-14T09:15:00.865Z,23
2018-05-14T09:15:21.363Z,23
2018-05-14T09:15:41.861Z,22.9
2018-05-14T09:16:02.342Z,23
2018-05-14T09:16:23.006Z,23
2018-05-14T09:16:43.439Z,23
2018-05-14T09:17:03.870Z,22.9
2018-05-14T09:17:24.342Z,22.9
2018-05-14T09:17:44.705Z,22.9
2018-05-14T09:18:05.027Z,22.8
2018-05-14T09:18:25.580Z,22.8
2018-05-14T09:18:46.786Z,22.9
2018-05-14T09:19:07.148Z,22.8
2018-05-14T09:19:27.722Z,22.8
2018-05-14T09:19:48.155Z,22.8
2018-05-14T09:20:08.468Z,22.9
2018-05-14T09:20:28.713Z,22.9
2018-05-14T09:20:49.021Z,22.9
2018-05-14T09:21:09.341Z,22.9
2018-05-14T09:21:29.810Z,22.9
2018-05-14T09:21:50.105Z,22.8
2018-05-14T09:22:10.464Z,22.8
2018-05-14T09:22:30.842Z,22.7
2018-05-14T09:22:51.188Z,22.7
2018-05-14T09:23:12.144Z,22.8
2018-05-14T09:23:32.489Z,22.7
2018-05-14T09:23:53.121Z,22.8
2018-05-14T09:24:13.459Z,22.9
2018-05-14T09:24:33.832Z,22.8
2018-05-14T09:24:54.269Z,22.8
2018-05-14T09:25:14.572Z,22.9
2018-05-14T09:25:35.048Z,22.8
2018-05-14T09:25:55.432Z,22.8
2018-05-14T09:26:15.686Z,22.9
2018-05-14T09:26:35.981Z,22.8
2018-05-14T09:26:56.144Z,22.8
2018-05-14T09:27:16.424Z,22.8
2018-05-14T09:27:36.759Z,22.8
2018-05-14T09:27:57.033Z,22.8
2018-05-14T09:28:17.454Z,22.8
2018-05-14T09:28:37.771Z,22.9
2018-05-14T09:28:58.234Z,22.8
2018-05-14T09:29:18.562Z,22.8
2018-05-14T09:29:38.852Z,22.9
2018-05-14T09:29:59.330Z,22.8
2018-05-14T09:30:19.935Z,22.9
2018-05-14T09:30:40.291Z,22.9
2018-05-14T09:31:00.655Z,22.9
2018-05-14T09:31:21.028Z,22.9
2018-05-14T09:31:41.334Z,22.9
2018-05-14T09:32:01.686Z,22.9
2018-05-14T09:32:21.952Z,22.9
2018-05-14T09:32:42.255Z,22.8
2018-05-14T09:33:02.741Z,22.8
2018-05-14T09:33:22.981Z,22.9
2018-05-14T09:33:43.332Z,22.8
2018-05-14T09:34:03.763Z,22.8
2018-05-14T09:34:24.091Z,22.9
2018-05-14T09:34:44.543Z,22.8
2018-05-14T09:35:04.861Z,22.8
2018-05-14T09:35:25.127Z,22.8
2018-05-14T09:35:45.558Z,22.8
2018-05-14T09:36:05.866Z,22.8
2018-05-14T09:36:26.358Z,22.8
2018-05-14T09:36:46.551Z,22.9
2018-05-14T09:37:06.988Z,22.9
2018-05-14T09:37:27.374Z,22.8
2018-05-14T09:37:47.692Z,22.8
2018-05-14T09:38:07.999Z,22.9
2018-05-14T09:38:28.391Z,22.9
2018-05-14T09:38:48.739Z,22.9
2018-05-14T09:39:09.164Z,23
2018-05-14T09:39:29.452Z,23
2018-05-14T09:39:49.757Z,22.9
2018-05-14T09:40:10.186Z,23
2018-05-14T09:40:30.839Z,23
2018-05-14T09:40:51.293Z,23.1
2018-05-14T09:41:11.613Z,23.1
2018-05-14T09:41:32.085Z,23.1
2018-05-14T09:41:52.452Z,23.1
2018-05-14T09:42:12.728Z,23.1
2018-05-14T09:42:33.042Z,23.1
2018-05-14T09:42:53.507Z,23.2
2018-05-14T09:43:14.085Z,23.2
2018-05-14T09:43:34.961Z,23.2
2018-05-14T09:43:55.319Z,23.2
2018-05-14T09:44:15.633Z,23.2
2018-05-14T09:44:36.228Z,23.2
2018-05-14T09:44:56.589Z,23.2
2018-05-14T09:45:16.815Z,23.3
2018-05-14T09:45:37.037Z,23.2
2018-05-14T09:45:57.429Z,23.3
2018-05-14T09:46:17.915Z,23.2
2018-05-14T09:46:38.144Z,23.3
2018-05-14T09:46:58.464Z,23.3
2018-05-14T09:47:18.935Z,23.2
2018-05-14T09:47:39.524Z,23.2
2018-05-14T09:47:59.932Z,23.2
2018-05-14T09:48:20.643Z,23.2
2018-05-14T09:48:41.928Z,23.3
2018-05-14T09:49:02.810Z,23.3
2018-05-14T09:49:23.438Z,23.3
2018-05-14T09:49:44.048Z,23.3
2018-05-14T09:50:04.444Z,23.2
2018-05-14T09:50:24.879Z,23.3
2018-05-14T09:50:45.259Z,23.3
2018-05-14T09:51:05.593Z,23.2
2018-05-14T09:51:26.262Z,23.2
2018-05-14T09:51:46.983Z,23.3
2018-05-14T09:52:07.749Z,23.3
2018-05-14T09:52:28.433Z,23.3
2018-05-14T09:52:49.041Z,23.3
2018-05-14T09:53:09.780Z,23.3
2018-05-14T09:53:29.990Z,23.3
2018-05-14T09:53:50.698Z,23.3
2018-05-14T09:54:11.506Z,23.3
2018-05-14T09:54:31.926Z,23.2
2018-05-14T09:54:53.473Z,23.2
2018-05-14T09:55:14.446Z,23.3
2018-05-14T09:55:34.695Z,23.2
2018-05-14T09:55:55.414Z,23.2
2018-05-14T09:56:15.808Z,23.3
2018-05-14T09:56:36.180Z,23.3
2018-05-14T09:56:56.716Z,23.3
2018-05-14T09:57:17.097Z,23.4
2018-05-14T09:57:37.500Z,23.4
2018-05-14T09:57:57.772Z,23.2
2018-05-14T09:58:18.083Z,23.3
2018-05-14T09:58:38.581Z,23.3
2018-05-14T09:58:58.969Z,23.3
2018-05-14T09:59:19.598Z,23.2
2018-05-14T09:59:39.930Z,23.3
2018-05-14T10:00:01.195Z,23.2
2018-05-14T10:00:21.559Z,23.2
2018-05-14T10:00:41.793Z,23.3
2018-05-14T10:01:02.992Z,23.3
2018-05-14T10:01:23.536Z,23.2
2018-05-14T10:01:44.311Z,23.3
2018-05-14T10:02:04.873Z,23.2
2018-05-14T10:02:25.367Z,23.2
2018-05-14T10:02:46.868Z,23.2
2018-05-14T10:03:07.343Z,23.3